Time;durP1;ratioP1;P1;durP2;ratioP2;P2;SDS_P1;SDS_P2;PMS_P1;PMS_P2;Temp;Humidity;BMP_temperature;BMP_pressure;BME280_temperature;BME280_humidity;BME280_pressure;Samples;Min_cycle;Max_cycle;Signal;HPM_P1;HPM_P2
2022/03/30 00:00:32;;;;;;;32.45;14.20;;;;;;;6.62;91.16;100913.91;4990471;28;20325;-65
2022/03/30 00:02:58;;;;;;;29.77;13.40;;;;;;;6.61;91.35;100899.06;4991675;28;20121;-66
2022/03/30 00:05:23;;;;;;;30.48;13.60;;;;;;;6.59;91.89;100908.75;4987893;28;20026;-65
2022/03/30 00:07:52;;;;;;;31.55;13.32;;;;;;;6.59;91.11;100913.16;4991686;28;20038;-65
2022/03/30 00:10:18;;;;;;;25.23;13.63;;;;;;;6.56;91.87;100904.44;4990908;28;20027;-65
2022/03/30 00:12:43;;;;;;;25.00;13.35;;;;;;;6.56;91.55;100895.69;4966238;28;20041;-66
2022/03/30 00:15:09;;;;;;;26.25;13.48;;;;;;;6.53;91.09;100896.63;4970236;28;20125;-65
2022/03/30 00:17:34;;;;;;;27.77;13.90;;;;;;;6.49;91.74;100894.13;4991653;28;20149;-65
2022/03/30 00:20:01;;;;;;;28.38;14.40;;;;;;;6.38;91.57;100895.28;4990240;28;20034;-67
2022/03/30 00:22:26;;;;;;;27.20;14.05;;;;;;;6.33;91.80;100898.91;4997349;28;20038;-65
2022/03/30 00:24:52;;;;;;;29.55;12.98;;;;;;;6.26;92.31;100894.72;4988847;28;20561;-67
2022/03/30 00:27:17;;;;;;;24.80;12.90;;;;;;;6.19;92.17;100904.53;4992089;28;20036;-67
2022/03/30 00:29:44;;;;;;;26.08;13.23;;;;;;;6.18;92.98;100905.44;4990220;28;20034;-65
2022/03/30 00:32:10;;;;;;;29.38;13.70;;;;;;;6.15;93.42;100905.50;4992211;28;20469;-66
2022/03/30 00:34:36;;;;;;;29.08;13.55;;;;;;;6.17;92.99;100899.31;4969104;28;20054;-65
2022/03/30 00:37:02;;;;;;;25.30;13.35;;;;;;;6.13;92.97;100905.56;4988019;28;20038;-66
2022/03/30 00:39:27;;;;;;;26.58;13.68;;;;;;;6.15;92.77;100901.13;4990669;28;20053;-66
2022/03/30 00:41:52;;;;;;;27.58;13.35;;;;;;;6.16;92.97;100907.25;4989408;28;21073;-66
2022/03/30 00:44:18;;;;;;;27.75;13.32;;;;;;;6.13;92.94;100900.28;4984683;28;20035;-66
2022/03/30 00:46:44;;;;;;;29.42;13.60;;;;;;;6.13;92.78;100887.16;4992019;28;20569;-66
2022/03/30 00:49:10;;;;;;;27.25;13.13;;;;;;;6.07;92.51;100888.19;4991424;28;20038;-66
2022/03/30 00:51:35;;;;;;;31.83;13.18;;;;;;;6.07;92.59;100887.31;4987237;28;20038;-66
2022/03/30 00:54:01;;;;;;;29.98;13.13;;;;;;;6.04;93.12;100887.41;4993520;28;20034;-65
2022/03/30 00:56:31;;;;;;;28.45;13.57;;;;;;;6.00;92.84;100886.59;4995423;28;20030;-67
2022/03/30 00:58:57;;;;;;;28.80;12.27;;;;;;;5.97;93.00;100876.16;4991023;28;20031;-66
2022/03/30 01:01:23;;;;;;;28.33;12.45;;;;;;;5.91;93.32;100871.88;4995021;28;20034;-66
2022/03/30 01:03:48;;;;;;;27.20;13.02;;;;;;;5.85;92.73;100871.19;4988022;28;20443;-67
2022/03/30 01:06:14;;;;;;;29.17;12.10;;;;;;;5.81;93.60;100870.41;4994144;28;20037;-65
2022/03/30 01:08:39;;;;;;;30.33;13.43;;;;;;;5.78;93.52;100867.84;4991916;28;20100;-65
2022/03/30 01:11:05;;;;;;;29.45;12.73;;;;;;;5.73;93.70;100864.47;4992182;28;20038;-65
2022/03/30 01:13:32;;;;;;;28.25;13.15;;;;;;;5.70;94.72;100867.16;4992382;28;20033;-68
2022/03/30 01:15:58;;;;;;;31.02;13.48;;;;;;;5.66;94.09;100870.75;4991192;28;20872;-66
2022/03/30 01:18:24;;;;;;;28.27;12.75;;;;;;;5.61;94.59;100860.34;4993640;28;20562;-66
2022/03/30 01:20:50;;;;;;;28.58;13.18;;;;;;;5.60;95.03;100858.66;4993507;28;20121;-65
2022/03/30 01:23:17;;;;;;;28.52;12.90;;;;;;;5.53;94.54;100863.16;4986281;28;20034;-65
2022/03/30 01:25:42;;;;;;;29.25;13.55;;;;;;;5.45;95.36;100853.72;4992319;28;20034;-65
2022/03/30 01:28:08;;;;;;;29.42;13.70;;;;;;;5.41;95.16;100853.81;4992144;28;20035;-67
2022/03/30 01:33:17;;;;;;;27.10;13.13;;;;;;;5.30;96.09;100852.34;4995422;28;20081;-67
2022/03/30 01:35:42;;;;;;;27.08;13.13;;;;;;;5.23;96.05;100846.34;4992149;28;20459;-66
2022/03/30 01:38:07;;;;;;;25.85;13.38;;;;;;;5.17;95.82;100855.25;4992076;28;20062;-65
2022/03/30 01:40:33;;;;;;;28.92;13.35;;;;;;;5.11;96.66;100855.38;4991703;28;20569;-66
2022/03/30 01:42:59;;;;;;;30.10;13.50;;;;;;;5.12;96.51;100851.00;4990987;28;20453;-65
2022/03/30 01:45:24;;;;;;;26.58;13.00;;;;;;;5.09;96.86;100851.94;5006053;28;20037;-65
2022/03/30 01:47:57;;;;;;;28.40;13.95;;;;;;;5.04;96.48;100849.41;4995374;28;20110;-65
2022/03/30 01:50:23;;;;;;;29.20;13.10;;;;;;;5.03;97.21;100845.03;4990527;28;20050;-67
2022/03/30 01:52:48;;;;;;;29.25;13.40;;;;;;;4.98;97.03;100839.03;4995100;28;20026;-66
2022/03/30 01:55:15;;;;;;;28.50;13.07;;;;;;;4.98;97.16;100836.41;4994968;28;20088;-65
2022/03/30 01:57:41;;;;;;;27.50;12.88;;;;;;;4.94;97.81;100834.75;4992792;28;20033;-65
2022/03/30 02:00:07;;;;;;;25.42;12.45;;;;;;;4.95;97.71;100836.47;4991940;28;20031;-67
2022/03/30 02:02:32;;;;;;;29.63;13.25;;;;;;;4.96;98.19;100843.44;4988404;28;20019;-68
2022/03/30 02:04:58;;;;;;;27.17;12.43;;;;;;;4.99;98.18;100837.28;4992209;28;20041;-66
2022/03/30 02:07:23;;;;;;;29.35;12.38;;;;;;;5.03;97.60;100837.16;4989842;28;20569;-66
2022/03/30 02:09:49;;;;;;;31.02;12.77;;;;;;;5.08;97.37;100832.66;4999585;28;20034;-65
2022/03/30 02:12:15;;;;;;;24.83;11.93;;;;;;;5.08;97.34;100827.44;4995840;28;20030;-67
2022/03/30 02:14:41;;;;;;;28.98;12.48;;;;;;;5.06;97.29;100831.88;4994097;28;20036;-65
2022/03/30 02:17:07;;;;;;;30.42;11.90;;;;;;;5.11;97.14;100825.66;5006242;28;20096;-67
2022/03/30 02:19:32;;;;;;;28.95;12.82;;;;;;;5.11;97.04;100820.41;5002901;28;20030;-66
2022/03/30 02:21:58;;;;;;;28.38;13.23;;;;;;;5.12;96.99;100819.50;4993343;28;20692;-65
2022/03/30 02:24:24;;;;;;;35.83;13.48;;;;;;;5.07;96.55;100824.84;4999542;28;20041;-65
2022/03/30 02:26:50;;;;;;;29.13;12.85;;;;;;;4.99;97.03;100809.25;5012506;28;20033;-67
2022/03/30 02:29:16;;;;;;;25.48;11.88;;;;;;;4.95;97.19;100809.34;4988935;28;20042;-67
2022/03/30 02:31:43;;;;;;;28.75;13.45;;;;;;;4.91;97.37;100808.56;4991235;28;20104;-67
2022/03/30 02:34:11;;;;;;;26.55;12.85;;;;;;;4.86;98.17;100807.78;4990915;28;20099;-67
2022/03/30 02:36:37;;;;;;;27.10;13.00;;;;;;;4.79;97.79;100801.81;4993861;28;20113;-67
2022/03/30 02:39:03;;;;;;;29.80;12.63;;;;;;;4.74;97.70;100801.06;5000864;28;20038;-65
2022/03/30 02:41:29;;;;;;;31.23;12.82;;;;;;;4.64;98.47;100799.53;4991805;28;20038;-65
2022/03/30 02:43:55;;;;;;;28.80;12.73;;;;;;;4.61;98.90;100799.59;5004095;28;20042;-67
2022/03/30 02:46:20;;;;;;;25.67;12.82;;;;;;;4.57;99.07;100794.41;4991669;28;20442;-67
2022/03/30 02:48:45;;;;;;;30.60;12.93;;;;;;;4.54;99.43;100781.38;4992576;28;20037;-67
2022/03/30 02:51:11;;;;;;;28.73;13.40;;;;;;;4.51;99.28;100784.03;4994292;28;20034;-67
2022/03/30 02:53:38;;;;;;;27.55;12.80;;;;;;;4.46;99.67;100785.88;4994060;28;20457;-65
2022/03/30 02:56:04;;;;;;;34.63;13.00;;;;;;;4.39;99.74;100786.94;4992440;28;20026;-66
2022/03/30 02:58:30;;;;;;;27.85;12.07;;;;;;;4.35;99.30;100783.50;4997007;28;20030;-66
2022/03/30 03:00:56;;;;;;;26.70;13.48;;;;;;;4.34;100.00;100788.78;4993847;28;20039;-66
2022/03/30 03:03:23;;;;;;;27.20;12.88;;;;;;;4.31;100.00;100783.56;4983416;28;20030;-67
2022/03/30 03:05:48;;;;;;;31.90;12.93;;;;;;;4.28;100.00;100776.63;4979389;28;20053;-67
2022/03/30 03:08:13;;;;;;;31.88;13.73;;;;;;;4.25;100.00;100772.31;4992159;28;20485;-66
2022/03/30 03:10:42;;;;;;;30.52;12.57;;;;;;;4.24;100.00;100777.59;4998257;28;20033;-66
2022/03/30 03:13:08;;;;;;;25.42;13.13;;;;;;;4.20;100.00;100770.69;4994617;28;20044;-65
2022/03/30 03:15:35;;;;;;;35.17;13.52;;;;;;;4.20;100.00;100775.94;4990124;28;20042;-66
2022/03/30 03:18:01;;;;;;;31.15;13.07;;;;;;;4.15;100.00;100773.38;4990940;28;20030;-66
2022/03/30 03:20:28;;;;;;;25.50;12.65;;;;;;;4.13;100.00;100775.19;4997151;28;20078;-66
2022/03/30 03:22:54;;;;;;;30.00;12.82;;;;;;;4.09;100.00;100766.53;4979585;28;20026;-66
2022/03/30 03:25:19;;;;;;;32.10;13.77;;;;;;;4.07;100.00;100780.56;4974295;28;20034;-66
2022/03/30 03:27:45;;;;;;;26.70;13.38;;;;;;;4.03;100.00;100774.50;4998992;28;20037;-66
2022/03/30 03:30:10;;;;;;;28.58;12.45;;;;;;;3.97;100.00;100782.47;4993030;28;20023;-67
2022/03/30 03:32:36;;;;;;;27.52;13.15;;;;;;;3.92;100.00;100779.91;4992380;28;20038;-67
2022/03/30 03:35:03;;;;;;;32.05;12.93;;;;;;;3.88;100.00;100783.50;4999599;28;20033;-67
2022/03/30 03:37:28;;;;;;;28.65;12.50;;;;;;;3.87;100.00;100781.75;5007118;28;20038;-67
2022/03/30 03:39:53;;;;;;;28.90;13.23;;;;;;;3.87;100.00;100788.75;4991595;28;20490;-67
2022/03/30 03:42:19;;;;;;;30.40;13.07;;;;;;;3.85;100.00;100783.56;4989025;28;20054;-65
2022/03/30 03:44:45;;;;;;;31.80;12.43;;;;;;;3.85;100.00;100793.16;4991015;28;20105;-66
2022/03/30 03:47:10;;;;;;;33.45;13.57;;;;;;;3.83;100.00;100782.72;4992202;28;20045;-66
2022/03/30 03:49:36;;;;;;;30.42;12.77;;;;;;;3.87;100.00;100773.91;4999566;28;20029;-68
2022/03/30 03:52:03;;;;;;;33.33;13.52;;;;;;;3.89;100.00;100774.75;4996194;28;20109;-66
2022/03/30 03:54:28;;;;;;;31.67;13.70;;;;;;;3.91;100.00;100769.47;4979248;28;20032;-66
2022/03/30 03:56:54;;;;;;;28.98;13.02;;;;;;;3.94;100.00;100772.06;5012157;28;20117;-66
2022/03/30 03:59:19;;;;;;;29.25;13.90;;;;;;;3.99;100.00;100761.47;4990620;28;20061;-66
2022/03/30 04:01:45;;;;;;;34.13;13.93;;;;;;;4.04;100.00;100755.28;4988196;28;20486;-66
2022/03/30 04:04:10;;;;;;;28.58;13.23;;;;;;;4.09;100.00;100750.81;5009186;28;20033;-66
2022/03/30 04:06:35;;;;;;;34.35;13.77;;;;;;;4.14;100.00;100748.06;5008517;28;20485;-66
2022/03/30 04:09:01;;;;;;;30.70;12.77;;;;;;;4.16;100.00;100750.69;4988384;28;20121;-66
2022/03/30 04:11:26;;;;;;;29.02;13.48;;;;;;;4.15;100.00;100744.56;4980138;28;20161;-66
2022/03/30 04:13:51;;;;;;;27.33;12.98;;;;;;;4.17;100.00;100741.91;5008917;28;20118;-66
2022/03/30 04:16:17;;;;;;;30.13;12.77;;;;;;;4.16;100.00;100742.81;4984930;28;20050;-66
2022/03/30 04:18:44;;;;;;;27.88;13.30;;;;;;;4.13;100.00;100733.25;4991387;28;20037;-66
2022/03/30 04:21:10;;;;;;;28.15;13.43;;;;;;;4.04;100.00;100739.53;4973723;28;20030;-66
2022/03/30 04:23:36;;;;;;;33.53;13.88;;;;;;;3.99;100.00;100737.88;5002518;28;20041;-66
2022/03/30 04:26:01;;;;;;;33.92;13.77;;;;;;;3.93;100.00;100739.72;4992180;28;20398;-66
2022/03/30 04:28:27;;;;;;;25.15;13.85;;;;;;;3.88;100.00;100736.34;4993357;28;20026;-65
2022/03/30 04:30:52;;;;;;;27.80;13.23;;;;;;;3.85;100.00;100735.53;4996247;28;20172;-66
2022/03/30 04:33:17;;;;;;;27.35;12.38;;;;;;;3.81;100.00;100741.72;5000650;28;20131;-67
2022/03/30 04:35:43;;;;;;;30.42;13.23;;;;;;;3.74;100.00;100736.59;5000746;28;20030;-67
2022/03/30 04:38:09;;;;;;;29.17;13.00;;;;;;;3.65;100.00;100736.75;5007507;28;20034;-67
2022/03/30 04:40:34;;;;;;;26.55;13.13;;;;;;;3.61;100.00;100735.09;4998257;28;20026;-67
2022/03/30 04:43:00;;;;;;;32.15;13.05;;;;;;;3.54;100.00;100742.22;5015829;28;20101;-68
2022/03/30 04:45:25;;;;;;;31.52;13.60;;;;;;;3.45;100.00;100739.72;4997128;28;20042;-67
2022/03/30 04:47:54;;;;;;;30.25;13.50;;;;;;;3.39;100.00;100739.81;5006595;28;20112;-66
2022/03/30 04:50:21;;;;;;;26.95;12.90;;;;;;;3.32;100.00;100735.59;4996624;28;20018;-66
2022/03/30 04:52:47;;;;;;;31.70;13.57;;;;;;;3.30;100.00;100740.84;4995143;28;20046;-66
2022/03/30 04:55:12;;;;;;;32.67;13.68;;;;;;;3.28;100.00;100729.53;5000170;28;20462;-66
2022/03/30 04:57:40;;;;;;;29.70;13.40;;;;;;;3.19;100.00;100727.94;4975105;28;20061;-66
2022/03/30 05:00:10;;;;;;;30.73;14.70;;;;;;;3.17;100.00;100736.69;5006560;28;20261;-67
2022/03/30 05:02:37;;;;;;;33.85;13.48;;;;;;;3.14;100.00;100735.00;4987577;28;20061;-67
2022/03/30 05:05:03;;;;;;;31.00;13.23;;;;;;;3.07;100.00;100736.84;4989886;28;20090;-66
2022/03/30 05:07:29;;;;;;;33.35;13.55;;;;;;;3.06;100.00;100735.13;4989066;28;20906;-66
2022/03/30 05:09:54;;;;;;;34.53;13.80;;;;;;;3.06;100.00;100726.41;5002084;28;20116;-67
2022/03/30 05:12:19;;;;;;;30.35;13.57;;;;;;;3.02;100.00;100722.97;4992213;28;20072;-67
2022/03/30 05:14:45;;;;;;;31.42;13.07;;;;;;;3.03;100.00;100727.31;4992514;28;20041;-68
2022/03/30 05:17:10;;;;;;;31.30;14.10;;;;;;;3.03;100.00;100719.47;4985940;28;20134;-68
2022/03/30 05:19:39;;;;;;;31.23;13.88;;;;;;;3.02;100.00;100715.13;4985844;28;20030;-68
2022/03/30 05:22:05;;;;;;;32.88;13.48;;;;;;;2.99;100.00;100722.16;4994978;28;20034;-67
2022/03/30 05:24:31;;;;;;;31.02;14.15;;;;;;;3.00;100.00;100714.28;4973731;28;20089;-68
2022/03/30 05:26:57;;;;;;;37.13;14.32;;;;;;;2.96;100.00;100707.38;4975940;28;20033;-66
2022/03/30 05:29:22;;;;;;;33.55;14.73;;;;;;;2.95;100.00;100721.34;4982565;28;20440;-66
2022/03/30 05:31:48;;;;;;;40.03;15.18;;;;;;;2.96;100.00;100709.97;5003587;28;20145;-68
2022/03/30 05:34:13;;;;;;;39.97;14.40;;;;;;;2.97;100.00;100719.56;4994157;28;20030;-66
2022/03/30 05:36:38;;;;;;;35.05;14.07;;;;;;;2.99;100.00;100716.91;4988582;28;20698;-67
2022/03/30 05:39:04;;;;;;;33.15;14.52;;;;;;;3.04;100.00;100715.94;4988646;28;20057;-68
2022/03/30 05:41:30;;;;;;;35.15;14.27;;;;;;;3.10;100.00;100708.00;4987712;28;20030;-66
2022/03/30 05:43:56;;;;;;;35.22;14.75;;;;;;;3.13;100.00;100717.56;5007919;28;20038;-68
2022/03/30 05:46:21;;;;;;;34.35;14.93;;;;;;;3.17;100.00;100713.16;4972681;28;20035;-67
2022/03/30 05:48:47;;;;;;;32.55;13.88;;;;;;;3.17;100.00;100708.78;4993398;28;20026;-68
2022/03/30 05:51:13;;;;;;;37.83;14.93;;;;;;;3.22;100.00;100709.59;4985624;28;20121;-69
2022/03/30 05:53:39;;;;;;;36.70;15.20;;;;;;;3.30;100.00;100700.72;4991082;28;20110;-67
2022/03/30 05:56:05;;;;;;;37.78;15.30;;;;;;;3.33;100.00;100700.69;4992484;28;20025;-66
2022/03/30 05:58:30;;;;;;;39.03;15.40;;;;;;;3.38;100.00;100704.94;4989769;28;20027;-68
2022/03/30 06:00:56;;;;;;;39.63;15.30;;;;;;;3.45;100.00;100713.53;4987314;28;20030;-68
2022/03/30 06:03:21;;;;;;;37.42;15.25;;;;;;;3.49;100.00;100717.84;4974744;28;20038;-67
2022/03/30 06:05:46;;;;;;;38.45;14.38;;;;;;;3.55;100.00;100716.88;4993981;28;20524;-67
2022/03/30 06:08:12;;;;;;;33.00;13.88;;;;;;;3.60;100.00;100715.03;4974080;28;20125;-67
2022/03/30 06:10:37;;;;;;;36.20;14.57;;;;;;;3.69;100.00;100719.25;4990567;28;20035;-68
2022/03/30 06:13:03;;;;;;;36.88;14.38;;;;;;;3.73;100.00;100721.78;4985361;28;20023;-68
2022/03/30 06:15:31;;;;;;;44.08;16.05;;;;;;;3.83;100.00;100716.38;4985333;28;20076;-68
2022/03/30 06:17:56;;;;;;;35.75;13.60;;;;;;;3.93;100.00;100723.16;4994166;28;20518;-68
2022/03/30 06:20:24;;;;;;;32.85;14.73;;;;;;;4.08;100.00;100724.63;4989036;28;20089;-67
2022/03/30 06:22:51;;;;;;;33.50;14.52;;;;;;;4.22;100.00;100726.94;4989858;28;20516;-68
2022/03/30 06:25:17;;;;;;;35.17;14.32;;;;;;;4.29;100.00;100720.69;4990275;28;20465;-67
2022/03/30 06:27:42;;;;;;;32.20;14.40;;;;;;;4.35;100.00;100724.94;4988753;28;20034;-66
2022/03/30 06:30:09;;;;;;;35.22;14.75;;;;;;;4.42;100.00;100721.28;4987211;28;20070;-67
2022/03/30 06:32:35;;;;;;;34.05;13.85;;;;;;;4.54;100.00;100722.78;5002573;28;20088;-67
2022/03/30 06:35:04;;;;;;;37.10;14.40;;;;;;;4.63;100.00;100706.88;5001343;28;20528;-67
2022/03/30 06:37:30;;;;;;;38.78;15.35;;;;;;;4.71;99.91;100723.28;4998624;28;20022;-68
2022/03/30 06:39:55;;;;;;;40.03;15.75;;;;;;;4.81;99.64;100713.47;4999154;28;20030;-69
2022/03/30 06:42:21;;;;;;;31.45;13.25;;;;;;;4.95;99.01;100715.75;5004205;28;20021;-69
2022/03/30 06:44:46;;;;;;;29.17;13.40;;;;;;;5.09;98.92;100725.94;5010276;28;20033;-66
2022/03/30 06:47:12;;;;;;;33.47;14.55;;;;;;;5.27;97.50;100716.75;5000506;28;20116;-68
2022/03/30 06:49:38;;;;;;;35.92;13.13;;;;;;;5.43;97.54;100714.59;4994894;28;20033;-67
2022/03/30 06:52:08;;;;;;;33.97;13.43;;;;;;;5.54;96.10;100715.19;4999568;28;20084;-69
2022/03/30 06:54:35;;;;;;;31.02;12.32;;;;;;;5.63;95.24;100710.59;4992427;28;20022;-69
2022/03/30 06:57:02;;;;;;;28.52;12.55;;;;;;;5.71;94.27;100708.63;4992464;28;20092;-67
2022/03/30 06:59:27;;;;;;;27.20;12.82;;;;;;;5.87;92.89;100714.31;4992903;28;20138;-69
2022/03/30 07:01:55;;;;;;;32.22;12.88;;;;;;;5.93;93.43;100706.25;4993197;28;20120;-67
2022/03/30 07:04:21;;;;;;;25.45;12.40;;;;;;;6.01;92.51;100703.44;4993065;28;20413;-69
2022/03/30 07:12:14;;;;;;;27.98;12.00;;;;;;;6.29;92.72;100698.28;4991758;28;20033;-67
2022/03/30 07:14:40;;;;;;;26.67;12.20;;;;;;;6.34;91.67;100700.75;4992829;28;20102;-67
2022/03/30 07:17:05;;;;;;;26.27;12.25;;;;;;;6.42;91.94;100705.78;4991771;28;20458;-67
2022/03/30 07:19:31;;;;;;;27.70;12.68;;;;;;;6.46;90.44;100705.66;4992822;28;20469;-67
2022/03/30 07:21:56;;;;;;;34.03;13.70;;;;;;;6.48;90.71;100700.34;4992626;28;20077;-67
2022/03/30 07:24:22;;;;;;;28.77;13.18;;;;;;;6.58;90.41;100696.53;4993069;28;20023;-67
2022/03/30 07:26:47;;;;;;;29.63;13.05;;;;;;;6.61;89.59;100701.72;4992861;28;20223;-67
2022/03/30 07:29:12;;;;;;;33.17;13.88;;;;;;;6.50;89.92;100704.66;4991630;28;20453;-69
2022/03/30 07:31:38;;;;;;;27.42;14.63;;;;;;;6.64;90.36;100696.34;4992874;28;20516;-68
2022/03/30 07:34:04;;;;;;;33.88;13.48;;;;;;;6.70;90.87;100698.78;4991731;28;20038;-68
2022/03/30 07:36:30;;;;;;;29.15;13.10;;;;;;;6.78;91.15;100701.19;4991820;28;20030;-68
2022/03/30 07:38:56;;;;;;;28.38;14.10;;;;;;;6.91;90.56;100706.94;4992352;28;20018;-68
2022/03/30 07:41:21;;;;;;;36.50;15.35;;;;;;;6.95;90.70;100698.00;4992378;28;20026;-68
2022/03/30 07:43:47;;;;;;;29.48;14.48;;;;;;;6.87;90.84;100698.25;4992630;28;20062;-68
2022/03/30 07:46:13;;;;;;;35.13;15.18;;;;;;;6.92;91.01;100684.09;4992566;28;20497;-68
2022/03/30 07:48:39;;;;;;;30.42;14.57;;;;;;;6.88;90.64;100691.25;4992730;28;20133;-68
2022/03/30 07:51:06;;;;;;;26.60;14.95;;;;;;;6.98;90.44;100689.16;4992296;28;20105;-66
2022/03/30 07:53:31;;;;;;;31.80;15.27;;;;;;;7.04;90.34;100686.31;4991938;28;20034;-69
2022/03/30 07:55:57;;;;;;;28.60;14.55;;;;;;;7.09;89.88;100694.94;4979329;28;20724;-67
2022/03/30 07:58:23;;;;;;;30.83;14.02;;;;;;;7.26;89.17;100683.84;4992723;28;20081;-67
2022/03/30 08:00:49;;;;;;;33.10;15.07;;;;;;;7.43;90.07;100691.19;4992177;28;20517;-67
2022/03/30 08:03:14;;;;;;;34.42;15.35;;;;;;;7.70;89.29;100678.81;4997935;28;20034;-67
2022/03/30 08:05:40;;;;;;;22.98;12.75;;;;;;;8.12;86.88;100687.88;5006489;28;20484;-68
2022/03/30 08:08:07;;;;;;;26.92;12.73;;;;;;;8.43;85.77;100673.50;4999976;28;20117;-67
2022/03/30 08:10:35;;;;;;;30.90;12.27;;;;;;;8.66;84.82;100674.44;4992292;28;20026;-67
2022/03/30 08:13:01;;;;;;;29.30;12.52;;;;;;;8.73;83.97;100682.97;4997596;28;20061;-67
2022/03/30 08:15:27;;;;;;;23.60;11.43;;;;;;;8.97;84.30;100674.03;4999406;28;20050;-67
2022/03/30 08:17:54;;;;;;;21.42;12.32;;;;;;;9.18;82.52;100676.72;4981544;28;20034;-68
2022/03/30 08:23:04;;;;;;;18.35;8.70;;;;;;;9.59;80.29;100673.25;4992090;28;20042;-67
2022/03/30 08:25:30;;;;;;;11.45;6.82;;;;;;;9.49;78.88;100678.09;4990776;28;20039;-67
2022/03/30 08:27:55;;;;;;;13.65;7.10;;;;;;;9.30;80.59;100678.84;4991999;28;20030;-67
2022/03/30 08:30:20;;;;;;;10.82;6.28;;;;;;;9.48;80.27;100687.78;5003948;28;20093;-67
2022/03/30 08:32:46;;;;;;;12.13;5.78;;;;;;;9.60;78.54;100688.19;4986651;28;20041;-67
2022/03/30 08:35:12;;;;;;;12.15;5.80;;;;;;;9.39;79.48;100688.19;4991910;28;20026;-67
2022/03/30 08:37:39;;;;;;;13.38;5.95;;;;;;;9.30;80.02;100685.94;4991564;28;20101;-67
2022/03/30 08:40:06;;;;;;;13.13;6.45;;;;;;;9.26;80.46;100682.56;4999014;28;20416;-67
2022/03/30 08:42:32;;;;;;;10.15;5.57;;;;;;;9.50;79.15;100687.72;4976791;28;20089;-67
2022/03/30 08:44:59;;;;;;;8.82;4.93;;;;;;;9.67;78.63;100676.44;4989954;28;20097;-67
2022/03/30 08:47:25;;;;;;;10.05;4.63;;;;;;;9.61;78.18;100681.97;4973191;28;20089;-67
2022/03/30 08:49:51;;;;;;;11.77;5.53;;;;;;;9.42;78.12;100673.97;4991432;28;20045;-67
2022/03/30 08:52:17;;;;;;;8.15;4.55;;;;;;;9.57;78.78;100668.03;4973148;28;20046;-67
2022/03/30 08:54:44;;;;;;;11.43;4.90;;;;;;;9.72;78.36;100669.16;4989723;28;20121;-66
2022/03/30 08:57:10;;;;;;;9.48;4.45;;;;;;;9.97;76.83;100663.63;4984150;28;20037;-67
2022/03/30 08:59:36;;;;;;;7.38;4.15;;;;;;;10.00;74.77;100663.50;4990969;28;20030;-67
2022/03/30 09:02:01;;;;;;;10.38;4.60;;;;;;;10.02;74.45;100662.56;4990011;28;20084;-68
2022/03/30 09:04:27;;;;;;;8.90;4.38;;;;;;;9.96;75.51;100655.75;4990701;28;20039;-67
2022/03/30 09:06:57;;;;;;;7.20;3.92;;;;;;;10.04;75.05;100658.91;4990450;28;20065;-67
2022/03/30 09:09:29;;;;;;;8.02;4.30;;;;;;;10.02;74.71;100662.56;4990981;28;20098;-66
2022/03/30 09:11:55;;;;;;;9.05;4.90;;;;;;;10.04;74.72;100664.22;4987596;28;20113;-67
2022/03/30 09:14:27;;;;;;;9.15;4.43;;;;;;;10.00;75.03;100655.56;4995348;28;20461;-66
2022/03/30 09:16:54;;;;;;;;;;;;;;;10.04;75.06;100663.34;4995795;28;20426;-66
2022/03/30 09:19:20;;;;;;;10.77;5.05;;;;;;;10.14;74.67;100670.81;4977795;28;19920;-67
2022/03/30 09:21:47;;;;;;;10.27;5.25;;;;;;;10.33;74.06;100659.34;4994196;28;20023;-66
2022/03/30 09:24:15;;;;;;;8.15;4.65;;;;;;;10.44;73.53;100653.59;4995273;28;20544;-67
2022/03/30 09:26:42;;;;;;;12.18;5.55;;;;;;;10.74;72.21;100667.16;4995227;28;20030;-66
2022/03/30 09:29:07;;;;;;;10.10;4.63;;;;;;;10.78;70.04;100658.13;4994898;28;20042;-66
2022/03/30 09:31:36;;;;;;;9.50;5.15;;;;;;;11.11;69.83;100653.88;4977721;28;20363;-66
2022/03/30 09:34:06;;;;;;;9.10;5.40;;;;;;;11.44;68.38;100653.97;4990963;28;20437;-66
2022/03/30 09:36:40;;;;;;;10.32;4.88;;;;;;;11.64;65.72;100660.03;4975828;28;20030;-67
2022/03/30 09:39:09;;;;;;;9.35;5.68;;;;;;;11.60;65.38;100647.88;4979933;28;20045;-66
2022/03/30 09:41:52;;;;;;;12.23;5.68;;;;;;;11.88;64.72;100649.06;4994547;28;20048;-66
2022/03/30 09:44:18;;;;;;;10.90;5.45;;;;;;;11.93;63.87;100647.88;4977253;28;20113;-67
2022/03/30 09:46:54;;;;;;;10.25;5.82;;;;;;;11.81;64.85;100643.22;4994728;28;20030;-66
2022/03/30 09:49:47;;;;;;;11.45;5.88;;;;;;;12.09;64.70;100636.47;4995155;28;20022;-66
2022/03/30 09:52:29;;;;;;;11.13;6.10;;;;;;;12.23;63.60;100638.38;4977657;28;20082;-67
2022/03/30 09:54:59;;;;;;;13.02;5.88;;;;;;;12.20;63.95;100630.56;4994467;28;20037;-67
2022/03/30 09:57:34;;;;;;;11.15;5.65;;;;;;;12.36;62.06;100630.59;4963782;28;20030;-65
2022/03/30 10:00:02;;;;;;;9.35;5.72;;;;;;;12.94;61.08;100629.06;4994133;28;20026;-66
2022/03/30 10:02:48;;;;;;;12.80;5.95;;;;;;;13.38;57.14;100624.75;4993959;28;20038;-68
2022/03/30 10:05:16;;;;;;;9.77;5.80;;;;;;;13.52;57.14;100629.25;4992751;28;20100;-67
2022/03/30 10:07:42;;;;;;;9.60;5.85;;;;;;;13.74;55.74;100621.66;4993850;28;20037;-67
2022/03/30 10:10:10;;;;;;;11.05;6.07;;;;;;;13.63;56.37;100625.94;4993739;28;20033;-67
2022/03/30 10:12:35;;;;;;;12.93;6.70;;;;;;;12.87;59.68;100622.41;4993936;28;20053;-67
2022/03/30 10:15:01;;;;;;;15.07;7.10;;;;;;;13.27;59.75;100612.06;4993376;28;21516;-67
2022/03/30 10:17:30;;;;;;;13.93;7.13;;;;;;;14.08;56.41;100619.56;4993923;28;20058;-67
2022/03/30 10:19:57;;;;;;;13.10;7.32;;;;;;;13.93;58.05;100613.38;4992529;28;20038;-67
2022/03/30 10:23:04;;;;;;;15.23;8.98;;;;;;;14.03;55.74;100626.97;4993923;28;20077;-66
2022/03/30 10:25:40;;;;;;;12.65;7.78;;;;;;;14.45;54.39;100620.81;4991757;28;20363;-66
2022/03/30 10:28:16;;;;;;;12.45;7.85;;;;;;;14.69;52.90;100624.59;4994043;28;20026;-66
2022/03/30 10:30:43;;;;;;;17.52;7.88;;;;;;;15.82;50.09;100621.47;4993355;28;20113;-66
2022/03/30 10:33:11;;;;;;;16.00;8.43;;;;;;;15.23;49.31;100609.50;4976363;28;20073;-67
2022/03/30 10:35:37;;;;;;;13.15;7.50;;;;;;;14.46;51.07;100609.22;4993639;28;20026;-66
2022/03/30 10:38:03;;;;;;;15.10;8.13;;;;;;;13.69;54.13;100615.75;4993536;28;20030;-66
2022/03/30 10:40:29;;;;;;;15.98;7.47;;;;;;;13.02;56.92;100615.31;4992257;28;20031;-66
2022/03/30 10:42:54;;;;;;;12.70;7.10;;;;;;;12.77;55.95;100614.09;4993583;28;20037;-66
2022/03/30 10:45:28;;;;;;;11.13;6.65;;;;;;;12.50;56.42;100620.03;4992406;28;20030;-66
2022/03/30 10:48:17;;;;;;;14.23;6.28;;;;;;;12.11;55.40;100618.66;4993541;28;20026;-65
2022/03/30 10:50:51;;;;;;;10.23;6.05;;;;;;;12.44;55.75;100615.94;4993572;28;20132;-65
2022/03/30 10:53:35;;;;;;;9.13;5.55;;;;;;;13.18;54.36;100615.28;4993129;28;20057;-66
2022/03/30 10:56:15;;;;;;;14.25;6.63;;;;;;;14.17;50.26;100607.47;5007453;28;20029;-67
2022/03/30 10:58:52;;;;;;;11.07;6.40;;;;;;;14.04;50.06;100607.41;5008635;28;20030;-69
2022/03/30 11:01:22;;;;;;;10.40;5.80;;;;;;;14.49;48.79;100603.66;4992596;28;20481;-66
2022/03/30 11:04:13;;;;;;;9.40;5.13;;;;;;;15.02;45.29;100598.44;4993195;28;20100;-66
2022/03/30 11:06:41;;;;;;;7.27;4.90;;;;;;;15.31;45.49;100591.13;4992863;28;20026;-67
2022/03/30 11:09:09;;;;;;;9.50;5.38;;;;;;;16.02;44.63;100574.66;4993220;28;20026;-65
2022/03/30 11:11:39;;;;;;;9.13;4.95;;;;;;;16.76;41.23;100573.72;4992654;28;20616;-65
2022/03/30 11:14:23;;;;;;;9.77;5.03;;;;;;;17.86;38.54;100566.16;4993203;28;20516;-65
2022/03/30 11:16:51;;;;;;;11.00;5.80;;;;;;;17.14;39.82;100570.00;4992145;28;20050;-65
2022/03/30 11:19:17;;;;;;;9.65;5.38;;;;;;;17.41;39.23;100564.31;4992683;28;20054;-65
2022/03/30 11:22:13;;;;;;;10.85;5.57;;;;;;;17.30;38.83;100564.28;4991903;28;20106;-66
2022/03/30 11:24:46;;;;;;;9.20;5.72;;;;;;;17.34;39.43;100566.63;4980210;28;20386;-66
2022/03/30 11:27:11;;;;;;;9.10;5.43;;;;;;;17.22;38.76;100556.03;4992473;28;20058;-66